createdAt,value
2022-12-23T00:03:01.443Z,100062.03
2022-12-23T00:06:12.488Z,100056.84
2022-12-23T00:09:15.214Z,100039.41
2022-12-23T00:12:36.766Z,100036.44
2022-12-23T00:15:39.766Z,100033.22
2022-12-23T00:18:43.761Z,100047.00
2022-12-23T00:21:47.166Z,100033.75
2022-12-23T00:24:50.097Z,100023.63
2022-12-23T00:28:01.603Z,100015.38
2022-12-23T00:31:07.859Z,100033.91
2022-12-23T00:34:12.232Z,100025.12
2022-12-23T00:37:15.221Z,100027.56
2022-12-23T00:40:38.391Z,100023.22
2022-12-23T00:43:41.389Z,100017.59
2022-12-23T00:46:44.398Z,100019.53
2022-12-23T00:49:47.360Z,100021.38
2022-12-23T00:52:50.042Z,100017.72
2022-12-23T00:55:53.120Z,100009.22
2022-12-23T00:58:56.161Z,100006.72
2022-12-23T01:02:17.903Z,100006.47
2022-12-23T01:05:49.718Z,99999.94
2022-12-23T01:08:52.763Z,100008.41
2022-12-23T01:11:55.409Z,99991.59
2022-12-23T01:14:58.703Z,99980.94
2022-12-23T01:18:01.403Z,99975.88
2022-12-23T01:21:07.376Z,99966.97
2022-12-23T01:24:12.480Z,99962.37
2022-12-23T01:27:15.508Z,99955.16
2022-12-23T01:30:18.226Z,99951.50
2022-12-23T01:33:21.537Z,99946.34
2022-12-23T01:36:24.215Z,99947.25
2022-12-23T01:39:27.221Z,99947.09
2022-12-23T01:42:47.481Z,99946.19
2022-12-23T01:45:50.688Z,99943.09
2022-12-23T01:48:54.079Z,99933.78
2022-12-23T01:51:57.098Z,99929.78
2022-12-23T01:54:59.857Z,99938.81
2022-12-23T01:58:26.044Z,99925.34
2022-12-23T02:01:48.929Z,99922.97
2022-12-23T02:04:53.098Z,99940.81
2022-12-23T02:08:15.297Z,99927.44
2022-12-23T02:11:33.489Z,99932.47
2022-12-23T02:15:12.834Z,99915.03
2022-12-23T02:18:44.500Z,99907.50
2022-12-23T02:22:13.353Z,99909.91
2022-12-23T02:25:31.453Z,99910.69
2022-12-23T02:29:15.278Z,99904.09
2022-12-23T02:32:50.503Z,99896.53
2022-12-23T02:36:02.111Z,99899.25
2022-12-23T02:39:15.696Z,99900.69
2022-12-23T02:42:24.388Z,99892.53
2022-12-23T02:45:45.827Z,99892.53
2022-12-23T02:48:56.889Z,99893.00
2022-12-23T02:52:03.921Z,99899.31
2022-12-23T02:55:13.997Z,99892.31
2022-12-23T02:58:21.216Z,99885.22
2022-12-23T03:01:26.409Z,99894.19
2022-12-23T03:04:29.492Z,99895.37
2022-12-23T03:07:44.155Z,99886.91
2022-12-23T03:11:02.163Z,99895.84
2022-12-23T03:14:16.936Z,99879.72
2022-12-23T03:17:48.542Z,99874.88
2022-12-23T03:21:14.811Z,99863.44
2022-12-23T03:24:30.757Z,99867.84
2022-12-23T03:27:41.263Z,99872.22
2022-12-23T03:30:49.803Z,99867.78
2022-12-23T03:33:59.820Z,99856.44
2022-12-23T03:37:06.853Z,99848.44
2022-12-23T03:40:16.743Z,99857.25
2022-12-23T03:43:27.333Z,99858.47
2022-12-23T03:46:38.571Z,99855.97
2022-12-23T03:50:12.366Z,99847.13
2022-12-23T03:53:36.768Z,99839.69
2022-12-23T03:56:46.365Z,99842.13
2022-12-23T03:59:53.569Z,99870.47
2022-12-23T04:03:12.449Z,99881.50
2022-12-23T04:06:18.484Z,99873.84
2022-12-23T04:09:23.084Z,99860.19
2022-12-23T04:12:27.796Z,99847.41
2022-12-23T04:15:30.997Z,99854.47
2022-12-23T04:18:34.184Z,99851.63
2022-12-23T04:21:37.356Z,99859.97
2022-12-23T04:24:40.471Z,99850.91
2022-12-23T04:27:43.517Z,99849.91
2022-12-23T04:30:46.635Z,99853.81
2022-12-23T04:33:49.412Z,99845.53
2022-12-23T04:36:52.531Z,99851.53
2022-12-23T04:39:55.191Z,99857.97
2022-12-23T04:42:58.467Z,99854.97
2022-12-23T04:46:01.166Z,99848.91
2022-12-23T04:49:04.154Z,99847.81
2022-12-23T04:52:08.361Z,99867.22
2022-12-23T04:55:12.167Z,99870.97
2022-12-23T04:58:14.839Z,99886.84
2022-12-23T05:01:17.814Z,99894.53
2022-12-23T05:04:20.568Z,99889.44
2022-12-23T05:07:23.633Z,99885.50
2022-12-23T05:10:26.388Z,99887.53
2022-12-23T05:13:29.548Z,99877.41
2022-12-23T05:16:34.281Z,99875.22
2022-12-23T05:19:37.392Z,99868.53
2022-12-23T05:22:40.172Z,99869.94
2022-12-23T05:25:43.176Z,99863.84
2022-12-23T05:28:46.949Z,99864.84
2022-12-23T05:31:50.007Z,99867.12
2022-12-23T05:34:52.979Z,99860.72
2022-12-23T05:37:57.154Z,99855.69
2022-12-23T05:40:59.955Z,99829.50
2022-12-23T05:44:02.941Z,99820.63
2022-12-23T05:47:06.300Z,99810.91
2022-12-23T05:50:09.686Z,99807.00
2022-12-23T05:53:12.433Z,99801.31
2022-12-23T05:56:15.397Z,99822.53
2022-12-23T05:59:18.255Z,99824.97
2022-12-23T06:02:22.397Z,99822.81
2022-12-23T06:05:25.775Z,99820.41
2022-12-23T06:08:28.480Z,99813.91
2022-12-23T06:11:31.531Z,99820.28
2022-12-23T06:14:34.441Z,99832.03
2022-12-23T06:17:37.657Z,99837.62
2022-12-23T06:20:40.380Z,99842.75
2022-12-23T06:23:43.476Z,99851.66
2022-12-23T06:26:49.731Z,99858.25
2022-12-23T06:29:56.526Z,99878.44
2022-12-23T06:32:59.146Z,99887.97
2022-12-23T06:36:02.282Z,99871.47
2022-12-23T06:39:04.992Z,99883.78
2022-12-23T06:42:08.030Z,99898.06
2022-12-23T06:45:11.277Z,99899.53
2022-12-23T06:48:14.356Z,99901.09
2022-12-23T06:51:17.023Z,99895.44
2022-12-23T06:54:21.000Z,99881.78
2022-12-23T06:57:23.690Z,99883.03
2022-12-23T07:00:26.772Z,99894.59
2022-12-23T07:03:29.523Z,99889.00
2022-12-23T07:06:32.909Z,99880.63
2022-12-23T07:09:35.734Z,99890.03
2022-12-23T07:12:39.477Z,99872.81
2022-12-23T07:15:42.242Z,99867.12
2022-12-23T07:18:45.372Z,99856.16
2022-12-23T07:21:48.134Z,99865.41
2022-12-23T07:24:53.957Z,99867.06
2022-12-23T07:27:57.091Z,99844.06
2022-12-23T07:31:00.230Z,99843.06
2022-12-23T07:34:02.933Z,99826.81
2022-12-23T07:37:06.077Z,99830.75
2022-12-23T07:40:09.922Z,99836.34
2022-12-23T07:43:13.670Z,99852.75
2022-12-23T07:46:16.418Z,99867.59
2022-12-23T07:49:19.430Z,99854.88
2022-12-23T07:52:23.062Z,99860.00
2022-12-23T07:55:26.294Z,99858.34
2022-12-23T07:58:28.964Z,99840.81
2022-12-23T08:01:32.167Z,99850.63
2022-12-23T08:04:37.405Z,99843.41
2022-12-23T08:07:45.239Z,99842.16
2022-12-23T08:10:48.907Z,99816.72
2022-12-23T08:13:52.943Z,99817.56
2022-12-23T08:16:56.813Z,99822.66
2022-12-23T08:19:59.739Z,99809.81
2022-12-23T08:23:11.620Z,99803.91
2022-12-23T08:26:19.527Z,99793.88
2022-12-23T08:29:22.533Z,99803.94
2022-12-23T08:32:28.655Z,99808.53
2022-12-23T08:35:31.810Z,99800.16
2022-12-23T08:38:35.915Z,99817.87
2022-12-23T08:41:44.566Z,99819.13
2022-12-23T08:44:47.330Z,99832.66
2022-12-23T08:47:50.279Z,99833.13
2022-12-23T08:50:53.067Z,99825.09
2022-12-23T08:54:01.110Z,99835.91
2022-12-23T08:57:04.259Z,99833.34
2022-12-23T09:00:07.994Z,99820.28
2022-12-23T09:03:11.829Z,99834.09
2022-12-23T09:06:26.562Z,99849.78
2022-12-23T09:09:32.844Z,99846.69
2022-12-23T09:12:36.201Z,99844.25
2022-12-23T09:15:45.709Z,99818.63
2022-12-23T09:18:48.769Z,99808.44
2022-12-23T09:21:51.555Z,99800.12
2022-12-23T09:24:59.894Z,99815.56
2022-12-23T09:28:07.409Z,99827.00
2022-12-23T09:31:12.261Z,99844.31
2022-12-23T09:34:15.204Z,99837.78
2022-12-23T09:37:18.278Z,99836.97
2022-12-23T09:40:22.063Z,99837.78
2022-12-23T09:43:58.772Z,99834.66
2022-12-23T09:47:05.150Z,99821.50
2022-12-23T09:50:35.688Z,99816.06
2022-12-23T09:54:16.611Z,99807.81
2022-12-23T09:57:35.592Z,99819.78
2022-12-23T10:01:00.736Z,99805.09
2022-12-23T10:04:28.970Z,99790.38
2022-12-23T10:07:37.760Z,99776.78
2022-12-23T10:11:00.414Z,99764.16
2022-12-23T10:14:12.070Z,99776.44
2022-12-23T10:17:30.605Z,99768.91
2022-12-23T10:21:20.326Z,99769.69
2022-12-23T10:24:34.263Z,99773.63
2022-12-23T10:27:41.977Z,99761.69
2022-12-23T10:31:23.839Z,99770.81
2022-12-23T10:34:33.454Z,99771.87
2022-12-23T10:37:52.064Z,99769.44
2022-12-23T10:41:08.928Z,99761.69
2022-12-23T10:44:21.236Z,99744.28
2022-12-23T10:47:45.265Z,99737.88
2022-12-23T10:51:02.640Z,99732.31
2022-12-23T10:54:10.536Z,99726.75
2022-12-23T10:57:18.121Z,99716.94
2022-12-23T11:00:24.374Z,99718.34
2022-12-23T11:03:29.372Z,99724.75
2022-12-23T11:06:37.612Z,99713.69
2022-12-23T11:09:55.449Z,99723.09
2022-12-23T11:12:58.972Z,99720.44
2022-12-23T11:16:17.372Z,99718.94
2022-12-23T11:19:21.449Z,99729.97
2022-12-23T11:22:25.626Z,99718.94
2022-12-23T11:25:38.361Z,99724.63
2022-12-23T11:28:50.092Z,99712.03
2022-12-23T11:31:53.076Z,99713.38
2022-12-23T11:34:56.697Z,99716.88
2022-12-23T11:38:02.043Z,99721.59
2022-12-23T11:41:05.853Z,99714.19
2022-12-23T11:44:31.138Z,99723.12
2022-12-23T11:47:42.142Z,99724.56
2022-12-23T11:50:44.837Z,99720.38
2022-12-23T11:53:47.786Z,99734.44
2022-12-23T11:56:53.157Z,99735.81
2022-12-23T12:00:00.999Z,99727.09
2022-12-23T12:03:07.318Z,99729.75
2022-12-23T12:06:15.816Z,99729.34
2022-12-23T12:09:19.071Z,99730.31
2022-12-23T12:12:22.444Z,99732.97
2022-12-23T12:15:48.992Z,99731.81
2022-12-23T12:18:56.214Z,99736.09
2022-12-23T12:22:06.063Z,99745.44
2022-12-23T12:25:22.197Z,99741.22
2022-12-23T12:28:32.911Z,99758.63
2022-12-23T12:31:42.087Z,99758.38
2022-12-23T12:34:57.603Z,99760.31
2022-12-23T12:38:20.807Z,99761.00
2022-12-23T12:41:29.236Z,99769.19
2022-12-23T12:44:58.592Z,99757.00
2022-12-23T12:48:31.506Z,99774.97
2022-12-23T12:51:49.866Z,99778.09
2022-12-23T12:55:13.763Z,99772.75
2022-12-23T12:58:22.136Z,99788.78
2022-12-23T13:01:53.931Z,99778.38
2022-12-23T13:05:29.518Z,99775.31
2022-12-23T13:08:38.213Z,99770.09
2022-12-23T13:11:47.865Z,99755.38
2022-12-23T13:15:15.500Z,99769.44
2022-12-23T13:18:56.803Z,99766.19
2022-12-23T13:22:15.248Z,99779.72
2022-12-23T13:25:31.603Z,99773.37
2022-12-23T13:28:46.572Z,99783.34
2022-12-23T13:31:59.842Z,99781.44
2022-12-23T13:35:31.327Z,99784.59
2022-12-23T13:38:54.703Z,99796.41
2022-12-23T13:42:05.612Z,99799.78
2022-12-23T13:45:18.212Z,99804.47
2022-12-23T13:48:26.776Z,99811.53
2022-12-23T13:51:29.679Z,99805.56
2022-12-23T13:54:46.609Z,99795.72
2022-12-23T13:58:11.676Z,99804.34
2022-12-23T14:01:14.250Z,99806.75
2022-12-23T14:04:37.566Z,99813.84
2022-12-23T14:07:45.093Z,99812.09
2022-12-23T14:11:20.102Z,99810.84
2022-12-23T14:14:25.279Z,99809.69
2022-12-23T14:18:04.350Z,99807.75
2022-12-23T14:21:36.360Z,99822.22
2022-12-23T14:24:51.976Z,99828.09
2022-12-23T14:27:57.311Z,99830.44
2022-12-23T14:31:03.288Z,99822.84
2022-12-23T14:34:18.055Z,99825.63
2022-12-23T14:37:21.083Z,99826.78
2022-12-23T14:40:38.922Z,99828.66
2022-12-23T14:43:45.945Z,99829.47
2022-12-23T14:46:48.704Z,99836.13
2022-12-23T14:49:52.005Z,99842.44
2022-12-23T14:53:02.932Z,99826.53
2022-12-23T14:56:32.252Z,99836.84
2022-12-23T15:00:01.620Z,99846.63
2022-12-23T15:03:04.884Z,99859.53
2022-12-23T15:06:08.731Z,99845.56
2022-12-23T15:09:32.761Z,99848.37
2022-12-23T15:12:38.832Z,99846.28
2022-12-23T15:15:58.989Z,99842.97
2022-12-23T15:19:19.443Z,99837.03
2022-12-23T15:22:28.518Z,99844.03
2022-12-23T15:25:39.772Z,99849.13
2022-12-23T15:28:43.078Z,99841.91
2022-12-23T15:31:50.714Z,99845.91
2022-12-23T15:35:07.213Z,99841.28
2022-12-23T15:38:15.177Z,99836.22
2022-12-23T15:41:18.871Z,99844.84
2022-12-23T15:44:24.469Z,99840.37
2022-12-23T15:47:39.092Z,99834.94
2022-12-23T15:50:42.306Z,99842.09
2022-12-23T15:53:47.765Z,99829.47
2022-12-23T15:56:53.783Z,99834.47
2022-12-23T15:59:59.443Z,99830.63
2022-12-23T16:03:06.473Z,99833.28
2022-12-23T16:06:17.612Z,99831.31
2022-12-23T16:09:20.231Z,99828.06
2022-12-23T16:12:26.644Z,99821.56
2022-12-23T16:15:33.327Z,99831.88
2022-12-23T16:18:47.331Z,99838.16
2022-12-23T16:21:50.908Z,99828.66
2022-12-23T16:24:58.067Z,99841.66
2022-12-23T16:28:11.279Z,99840.41
2022-12-23T16:31:17.909Z,99838.50
2022-12-23T16:34:20.797Z,99822.41
2022-12-23T16:37:24.904Z,99816.47
2022-12-23T16:40:27.651Z,99817.16
2022-12-23T16:43:31.266Z,99807.28
2022-12-23T16:46:37.906Z,99807.72
2022-12-23T16:49:41.675Z,99811.81
2022-12-23T16:52:45.935Z,99820.88
2022-12-23T16:55:56.668Z,99811.00
2022-12-23T16:59:03.996Z,99803.94
2022-12-23T17:02:19.532Z,99805.41
2022-12-23T17:05:23.459Z,99803.13
2022-12-23T17:08:26.475Z,99806.44
2022-12-23T17:11:40.575Z,99811.22
2022-12-23T17:14:43.619Z,99804.03
2022-12-23T17:17:47.543Z,99803.72
2022-12-23T17:20:52.887Z,99810.78
2022-12-23T17:24:11.096Z,99792.00
2022-12-23T17:27:17.488Z,99789.75
2022-12-23T17:30:23.067Z,99787.72
2022-12-23T17:33:31.308Z,99795.69
2022-12-23T17:36:35.495Z,99794.53
2022-12-23T17:39:38.688Z,99792.63
2022-12-23T17:42:42.181Z,99792.63
2022-12-23T17:45:47.753Z,99796.72
2022-12-23T17:48:53.513Z,99794.03
2022-12-23T17:51:56.532Z,99791.72
2022-12-23T17:54:59.231Z,99793.97
2022-12-23T17:58:02.292Z,99787.22
2022-12-23T18:01:05.303Z,99775.31
2022-12-23T18:04:08.382Z,99780.53
2022-12-23T18:07:12.737Z,99773.31
2022-12-23T18:10:19.093Z,99769.97
2022-12-23T18:13:21.953Z,99769.47
2022-12-23T18:16:24.980Z,99759.47
2022-12-23T18:19:27.655Z,99749.72
2022-12-23T18:22:31.282Z,99744.56
2022-12-23T18:25:34.006Z,99749.56
2022-12-23T18:28:37.101Z,99743.75
2022-12-23T18:31:51.239Z,99735.53
2022-12-23T18:34:55.697Z,99747.03
2022-12-23T18:38:02.163Z,99760.56
2022-12-23T18:41:05.239Z,99794.34
2022-12-23T18:44:17.604Z,99804.34
2022-12-23T18:47:22.991Z,99792.56
2022-12-23T18:50:26.229Z,99799.56
2022-12-23T18:53:29.302Z,99788.88
2022-12-23T18:56:31.901Z,99786.47
2022-12-23T18:59:37.796Z,99805.00
2022-12-23T19:02:40.707Z,99791.59
2022-12-23T19:05:48.995Z,99813.13
2022-12-23T19:08:51.699Z,99807.34
2022-12-23T19:11:55.122Z,99802.69
2022-12-23T19:14:58.034Z,99797.09
2022-12-23T19:18:01.166Z,99804.16
2022-12-23T19:21:05.185Z,99798.62
2022-12-23T19:24:11.096Z,99804.38
2022-12-23T19:27:13.803Z,99801.31
2022-12-23T19:30:18.696Z,99799.59
2022-12-23T19:33:21.867Z,99803.13
2022-12-23T19:36:25.211Z,99804.41
2022-12-23T19:39:28.046Z,99807.00
2022-12-23T19:42:31.213Z,99811.97
2022-12-23T19:45:35.411Z,99808.72
2022-12-23T19:48:39.079Z,99810.00
2022-12-23T19:51:41.910Z,99810.31
2022-12-23T19:54:47.564Z,99810.47
2022-12-23T19:57:52.133Z,99810.41
2022-12-23T20:01:06.652Z,99823.22
2022-12-23T20:04:10.716Z,99816.97
2022-12-23T20:07:13.805Z,99814.88
2022-12-23T20:10:18.235Z,99819.41
2022-12-23T20:13:21.316Z,99811.81
2022-12-23T20:16:25.150Z,99803.31
2022-12-23T20:19:28.489Z,99809.00
2022-12-23T20:22:31.927Z,99797.78
2022-12-23T20:25:34.738Z,99799.62
2022-12-23T20:28:38.648Z,99790.56
2022-12-23T20:31:42.004Z,99791.53
2022-12-23T20:34:45.218Z,99787.50
2022-12-23T20:37:48.153Z,99779.69
2022-12-23T20:40:51.195Z,99772.78
2022-12-23T20:44:31.611Z,99770.00
2022-12-23T20:47:18.532Z,99760.78
2022-12-23T20:50:21.993Z,99762.22
2022-12-23T20:53:25.153Z,99764.25
2022-12-23T20:56:32.425Z,99762.31
2022-12-23T20:59:35.496Z,99755.75
2022-12-23T21:02:38.152Z,99742.78
2022-12-23T21:05:41.674Z,99742.06
2022-12-23T21:08:47.071Z,99724.84
2022-12-23T21:11:50.174Z,99722.53
2022-12-23T21:14:52.904Z,99729.72
2022-12-23T21:17:56.111Z,99722.62
2022-12-23T21:21:00.395Z,99714.62
2022-12-23T21:24:06.377Z,99708.84
2022-12-23T21:27:09.051Z,99696.75
2022-12-23T21:30:12.331Z,99694.66
2022-12-23T21:33:15.028Z,99699.78
2022-12-23T21:36:21.006Z,99701.38
2022-12-23T21:39:23.792Z,99694.00
2022-12-23T21:42:27.704Z,99699.88
2022-12-23T21:45:30.682Z,99688.97
2022-12-23T21:48:36.077Z,99678.91
2022-12-23T21:51:40.782Z,99662.03
2022-12-23T21:54:46.347Z,99654.44
2022-12-23T21:57:49.079Z,99658.09
2022-12-23T22:00:52.843Z,99649.69
2022-12-23T22:03:57.169Z,99643.03
2022-12-23T22:06:59.895Z,99636.72
2022-12-23T22:10:03.102Z,99636.34
2022-12-23T22:13:06.762Z,99630.56
2022-12-23T22:16:15.593Z,99627.53
2022-12-23T22:19:18.386Z,99631.16
2022-12-23T22:22:22.369Z,99633.69
2022-12-23T22:25:25.604Z,99650.25
2022-12-23T22:28:31.337Z,99646.38
2022-12-23T22:31:58.266Z,99646.53
2022-12-23T22:35:02.445Z,99653.06
2022-12-23T22:38:06.826Z,99663.44
2022-12-23T22:41:10.937Z,99648.72
2022-12-23T22:44:15.927Z,99629.00
2022-12-23T22:47:21.321Z,99624.38
2022-12-23T22:50:25.850Z,99632.88
2022-12-23T22:53:32.107Z,99640.97
2022-12-23T22:56:36.972Z,99628.97
2022-12-23T22:59:44.931Z,99633.41
2022-12-23T23:02:49.934Z,99622.09
2022-12-23T23:06:12.493Z,99622.16
2022-12-23T23:09:20.595Z,99624.19
2022-12-23T23:15:48.167Z,99640.78
2022-12-23T23:18:54.130Z,99654.66
2022-12-23T23:21:57.991Z,99662.50
2022-12-23T23:25:02.173Z,99675.44
2022-12-23T23:28:12.693Z,99672.50
2022-12-23T23:34:43.717Z,99636.81
2022-12-23T23:37:48.109Z,99622.59
2022-12-23T23:40:56.907Z,99621.16
2022-12-23T23:44:01.675Z,99609.03
2022-12-23T23:47:06.388Z,99612.44
2022-12-23T23:50:12.736Z,99619.28
2022-12-23T23:53:16.951Z,99637.47
2022-12-23T23:56:25.368Z,99645.53
2022-12-23T23:59:31.065Z,99652.06
